Time;durP1;ratioP1;P1;durP2;ratioP2;P2;SDS_P1;SDS_P2;PMS_P1;PMS_P2;Temp;Humidity;BMP_temperature;BMP_pressure;BME280_temperature;BME280_humidity;BME280_pressure;Samples;Min_cycle;Max_cycle;Signal;HPM_P1;HPM_P2
2024/01/28 00:02:05;;;;;;;18.40;7.35;;;;;;;2.84;76.93;103185.69;5058341;28;20067;-76
2024/01/28 00:04:30;;;;;;;17.08;7.18;;;;;;;2.83;76.60;103187.44;5054872;28;20040;-76
2024/01/28 00:06:56;;;;;;;12.27;6.40;;;;;;;2.83;76.90;103183.94;5062890;28;20032;-76
2024/01/28 00:09:22;;;;;;;18.92;6.20;;;;;;;2.80;76.71;103187.38;5055415;28;20391;-76
2024/01/28 00:11:48;;;;;;;17.10;6.22;;;;;;;2.75;76.89;103179.41;5079938;28;20287;-76
2024/01/28 00:14:14;;;;;;;15.13;6.75;;;;;;;2.74;76.86;103176.72;5060107;28;20023;-76
2024/01/28 00:16:43;;;;;;;11.38;6.50;;;;;;;2.66;76.63;103171.28;5059721;28;20029;-76
2024/01/28 00:19:09;;;;;;;11.65;7.07;;;;;;;2.63;76.84;103172.91;5058053;28;20066;-77
2024/01/28 00:21:35;;;;;;;14.30;6.57;;;;;;;2.63;77.32;103162.47;5062705;28;20383;-76
2024/01/28 00:24:04;;;;;;;19.05;7.53;;;;;;;2.62;76.91;103169.41;5056890;28;20043;-76
2024/01/28 00:26:29;;;;;;;15.90;7.65;;;;;;;2.61;76.84;103151.97;5067479;28;20318;-76
2024/01/28 00:28:55;;;;;;;14.85;7.50;;;;;;;2.60;76.89;103162.38;5066009;28;20040;-76
2024/01/28 00:31:20;;;;;;;13.30;7.22;;;;;;;2.62;77.46;103152.88;5059020;28;20040;-77
2024/01/28 00:33:46;;;;;;;17.73;7.35;;;;;;;2.61;77.34;103161.50;5060420;28;20496;-76
2024/01/28 00:36:17;;;;;;;15.63;7.82;;;;;;;2.64;77.30;103161.63;5060700;28;20017;-77
2024/01/28 00:38:43;;;;;;;19.17;7.18;;;;;;;2.60;76.89;103163.25;5061270;28;20039;-77
2024/01/28 00:41:08;;;;;;;18.60;7.47;;;;;;;2.54;76.86;103163.94;5061076;28;20024;-79
2024/01/28 00:43:34;;;;;;;13.75;7.07;;;;;;;2.56;76.96;103156.16;5070342;28;20016;-79
2024/01/28 00:46:00;;;;;;;14.45;7.95;;;;;;;2.54;76.76;103148.28;5071431;28;20098;-79
2024/01/28 00:48:26;;;;;;;18.95;8.10;;;;;;;2.54;77.18;103152.63;5069597;28;20056;-79
2024/01/28 00:50:51;;;;;;;21.85;9.98;;;;;;;2.58;77.51;103151.88;5058641;28;20074;-79
2024/01/28 00:53:18;;;;;;;13.90;7.32;;;;;;;2.58;77.55;103140.56;5061970;28;20094;-79
2024/01/28 00:55:44;;;;;;;12.75;7.22;;;;;;;2.57;77.23;103134.44;5062913;28;20159;-79
2024/01/28 00:58:10;;;;;;;15.95;7.95;;;;;;;2.56;77.00;103135.25;5055893;28;20046;-79
2024/01/28 01:00:35;;;;;;;13.85;7.03;;;;;;;2.53;76.83;103133.47;5061987;28;20480;-79
2024/01/28 01:03:02;;;;;;;12.35;7.32;;;;;;;2.49;76.78;103125.50;5063233;28;20036;-79
2024/01/28 01:05:28;;;;;;;18.13;7.97;;;;;;;2.51;77.06;103129.91;5062495;28;20064;-79
2024/01/28 01:07:53;;;;;;;11.90;6.72;;;;;;;2.48;76.98;103124.63;5064270;28;20116;-79
2024/01/28 01:10:25;;;;;;;10.77;7.00;;;;;;;2.49;76.88;103126.38;5058421;28;20040;-79
2024/01/28 01:12:51;;;;;;;13.48;7.40;;;;;;;2.44;76.97;103122.75;5062723;28;20029;-79
2024/01/28 01:15:16;;;;;;;15.02;7.75;;;;;;;2.44;77.34;103122.75;5060662;28;20036;-80
2024/01/28 01:17:44;;;;;;;18.17;7.90;;;;;;;2.46;77.76;103117.56;5062576;28;20040;-79
2024/01/28 01:20:10;;;;;;;19.30;6.88;;;;;;;2.46;77.39;103110.59;5062151;28;20116;-79
2024/01/28 01:22:49;;;;;;;12.77;7.43;;;;;;;2.49;77.75;103112.44;5061262;28;20472;-80
2024/01/28 01:25:16;;;;;;;14.82;7.03;;;;;;;2.47;77.51;103122.84;5060153;28;20561;-79
2024/01/28 01:27:45;;;;;;;16.27;7.18;;;;;;;2.48;77.24;103124.63;5061537;28;20016;-79
2024/01/28 01:30:11;;;;;;;14.88;7.93;;;;;;;2.43;77.13;103115.75;5058119;28;20505;-76
2024/01/28 01:32:38;;;;;;;12.90;7.35;;;;;;;2.33;77.01;103111.06;5056338;28;20107;-79
2024/01/28 01:35:04;;;;;;;13.95;7.03;;;;;;;2.28;77.20;103112.66;5060623;28;20028;-79
2024/01/28 01:37:30;;;;;;;13.77;7.20;;;;;;;2.21;77.30;103109.00;5058374;28;20552;-79
2024/01/28 01:39:56;;;;;;;16.17;7.90;;;;;;;2.18;77.20;103098.44;5060834;28;20103;-79
2024/01/28 01:42:22;;;;;;;19.13;7.55;;;;;;;2.16;77.73;103105.38;5060999;28;20035;-79
2024/01/28 01:44:47;;;;;;;16.20;7.25;;;;;;;2.09;77.79;103090.34;5060126;28;20033;-79
2024/01/28 01:47:12;;;;;;;14.50;7.38;;;;;;;2.07;77.13;103098.97;5061952;28;21481;-79
2024/01/28 01:49:39;;;;;;;12.80;7.15;;;;;;;2.01;77.48;103105.78;5062624;28;20517;-79
2024/01/28 01:52:06;;;;;;;13.55;7.10;;;;;;;1.97;77.06;103119.56;5059335;28;20467;-76
2024/01/28 01:54:32;;;;;;;13.05;6.70;;;;;;;1.95;77.75;103116.00;5061873;28;20016;-76
2024/01/28 01:56:58;;;;;;;10.60;7.10;;;;;;;1.97;77.76;103108.25;5061165;28;20541;-76
2024/01/28 01:59:24;;;;;;;12.88;6.93;;;;;;;1.94;77.70;103111.63;5062098;28;20170;-76
2024/01/28 02:01:54;;;;;;;11.73;7.00;;;;;;;1.83;76.76;103115.63;5073478;28;20131;-77
2024/01/28 02:04:20;;;;;;;12.35;7.47;;;;;;;1.76;76.87;103114.50;5061144;28;20064;-76
2024/01/28 02:06:46;;;;;;;13.85;6.90;;;;;;;1.62;75.67;103113.19;5062689;28;20024;-76
2024/01/28 02:09:11;;;;;;;15.55;5.90;;;;;;;1.47;75.58;103125.72;5061852;28;20028;-76
2024/01/28 02:11:37;;;;;;;17.38;7.72;;;;;;;1.34;76.60;103127.00;5059992;28;20032;-77
2024/01/28 02:14:02;;;;;;;13.15;6.75;;;;;;;1.31;76.04;103128.63;5060573;28;20463;-76
2024/01/28 02:16:27;;;;;;;14.18;6.78;;;;;;;1.29;76.63;103123.34;5061342;28;20063;-76
2024/01/28 02:18:53;;;;;;;14.40;6.95;;;;;;;1.23;75.44;103120.53;5062820;28;20116;-76
2024/01/28 02:21:18;;;;;;;10.75;6.72;;;;;;;1.15;76.09;103129.78;5058811;28;20040;-76
2024/01/28 02:23:43;;;;;;;13.10;7.15;;;;;;;1.07;76.26;103111.28;5060720;28;20024;-76
2024/01/28 02:26:09;;;;;;;12.73;7.13;;;;;;;1.11;77.16;103109.69;5059965;28;20532;-76
2024/01/28 02:28:34;;;;;;;10.05;6.63;;;;;;;1.09;77.35;103095.72;5061588;28;20025;-76
2024/01/28 02:30:59;;;;;;;13.85;6.95;;;;;;;1.11;77.69;103087.13;5061131;28;20113;-76
2024/01/28 02:33:25;;;;;;;13.27;6.85;;;;;;;1.18;77.66;103083.03;5067366;28;20056;-76
2024/01/28 02:35:50;;;;;;;11.77;5.95;;;;;;;1.26;78.44;103078.97;5062651;28;20039;-76
2024/01/28 02:38:15;;;;;;;14.00;7.07;;;;;;;1.37;78.51;103077.59;5062515;28;20032;-77
2024/01/28 02:40:40;;;;;;;21.13;7.68;;;;;;;1.43;78.47;103071.69;5058222;28;20082;-79
2024/01/28 02:43:07;;;;;;;15.98;7.20;;;;;;;1.51;78.32;103067.63;5060071;28;20056;-79
2024/01/28 02:45:32;;;;;;;18.08;7.50;;;;;;;1.51;78.18;103060.69;5056423;28;20021;-80
2024/01/28 02:47:58;;;;;;;15.30;6.75;;;;;;;1.48;77.51;103063.19;5057026;28;20434;-79
2024/01/28 02:50:23;;;;;;;12.68;6.55;;;;;;;1.38;77.53;103048.09;5061686;28;20476;-79
2024/01/28 02:52:48;;;;;;;19.05;7.97;;;;;;;1.37;77.00;103059.34;5055739;28;20123;-79
2024/01/28 02:55:14;;;;;;;10.82;5.90;;;;;;;1.38;76.85;103057.63;5060822;28;20013;-79
2024/01/28 02:57:39;;;;;;;13.10;6.50;;;;;;;1.40;77.37;103050.72;5061843;28;20028;-79
2024/01/28 03:00:06;;;;;;;9.80;5.57;;;;;;;1.44;77.81;103050.88;5059717;28;20032;-79
2024/01/28 03:02:32;;;;;;;13.50;6.00;;;;;;;1.47;77.60;103058.81;5059896;28;20409;-77
2024/01/28 03:04:57;;;;;;;10.48;5.88;;;;;;;1.43;77.58;103053.47;5084373;28;20228;-76
2024/01/28 03:07:22;;;;;;;11.60;6.75;;;;;;;1.34;76.94;103051.44;5059968;28;20067;-76
2024/01/28 03:09:48;;;;;;;14.57;6.45;;;;;;;1.31;76.79;103055.69;5058449;28;20012;-76
2024/01/28 03:12:13;;;;;;;14.02;6.53;;;;;;;1.26;77.32;103060.72;5065254;28;20024;-79
2024/01/28 03:14:38;;;;;;;12.02;6.63;;;;;;;1.20;76.91;103053.56;5060335;28;20032;-79
2024/01/28 03:17:04;;;;;;;13.52;6.07;;;;;;;1.18;77.95;103050.03;5061455;28;20448;-79
2024/01/28 03:19:29;;;;;;;11.55;5.65;;;;;;;1.19;77.00;103040.50;5056734;28;20019;-79
2024/01/28 03:21:54;;;;;;;15.75;6.00;;;;;;;1.16;77.27;103035.16;5060404;28;20116;-79
2024/01/28 03:24:19;;;;;;;10.55;6.22;;;;;;;1.17;77.98;103037.84;5057168;28;20039;-79
2024/01/28 03:26:45;;;;;;;14.55;6.25;;;;;;;1.21;78.43;103031.00;5059371;28;20013;-79
2024/01/28 03:29:10;;;;;;;10.25;5.18;;;;;;;1.22;77.67;103032.78;5057548;28;20100;-79
2024/01/28 03:31:36;;;;;;;12.77;6.13;;;;;;;1.21;77.69;103026.69;5060110;28;20036;-79
2024/01/28 03:34:01;;;;;;;14.02;5.70;;;;;;;1.22;78.20;103030.19;5065930;28;20042;-79
2024/01/28 03:36:26;;;;;;;17.55;6.38;;;;;;;1.25;78.08;103025.06;5058355;28;20032;-79
2024/01/28 03:38:53;;;;;;;12.00;6.45;;;;;;;1.25;77.73;103041.56;5057879;28;20028;-79
2024/01/28 03:41:19;;;;;;;13.43;5.80;;;;;;;1.19;76.29;103046.59;5059181;28;20033;-79
2024/01/28 03:43:46;;;;;;;12.18;5.50;;;;;;;1.08;77.36;103044.47;5057279;28;20122;-79
2024/01/28 03:46:11;;;;;;;12.60;6.47;;;;;;;0.99;76.86;103032.91;5056535;28;20029;-79
2024/01/28 03:48:36;;;;;;;13.85;5.82;;;;;;;0.92;76.08;103036.09;5058304;28;20028;-79
2024/01/28 03:51:02;;;;;;;9.63;5.43;;;;;;;0.84;76.74;103041.88;5056059;28;20403;-77
2024/01/28 03:53:27;;;;;;;10.45;5.40;;;;;;;0.81;76.78;103036.56;5061101;28;20108;-77
2024/01/28 03:55:53;;;;;;;10.52;5.13;;;;;;;0.79;77.13;103033.00;5058768;28;20043;-76
2024/01/28 03:58:18;;;;;;;12.43;5.95;;;;;;;0.78;77.31;103011.31;5054955;28;20032;-77
2024/01/28 04:00:44;;;;;;;9.05;5.75;;;;;;;0.81;77.40;103021.84;5056911;28;20121;-77
2024/01/28 04:03:09;;;;;;;10.65;6.07;;;;;;;0.77;76.86;103022.56;5059084;28;20029;-77
2024/01/28 04:05:34;;;;;;;11.38;6.88;;;;;;;0.70;77.25;103013.66;5060239;28;20040;-77
2024/01/28 04:08:03;;;;;;;15.52;5.90;;;;;;;0.69;77.26;103016.19;5056177;28;20021;-77
2024/01/28 04:10:28;;;;;;;11.20;5.25;;;;;;;0.62;77.47;103012.50;5057865;28;20487;-77
2024/01/28 04:12:53;;;;;;;9.35;5.47;;;;;;;0.67;77.62;103018.75;5063292;28;20025;-77
2024/01/28 04:15:19;;;;;;;10.60;5.75;;;;;;;0.72;77.99;103014.59;5061679;28;20017;-77
2024/01/28 04:17:44;;;;;;;11.95;6.00;;;;;;;0.80;78.29;103019.19;5067513;28;20036;-77
2024/01/28 04:20:10;;;;;;;16.75;6.55;;;;;;;0.89;78.26;103025.59;5064227;28;20043;-77
2024/01/28 04:22:35;;;;;;;14.10;6.75;;;;;;;1.00;78.76;103028.56;5066872;28;20078;-77
2024/01/28 04:25:01;;;;;;;12.05;6.57;;;;;;;0.98;78.34;103020.72;5078819;28;20039;-77
2024/01/28 04:27:26;;;;;;;12.20;6.07;;;;;;;0.92;77.21;103004.84;5075591;28;20046;-77
2024/01/28 04:29:52;;;;;;;12.63;5.90;;;;;;;0.85;76.88;103012.44;5077762;28;20108;-77
2024/01/28 04:32:17;;;;;;;11.52;5.93;;;;;;;0.79;77.16;103001.78;5076249;28;20056;-77
2024/01/28 04:34:43;;;;;;;10.10;5.63;;;;;;;0.75;77.27;103000.81;5077204;28;20108;-77
2024/01/28 04:37:08;;;;;;;12.68;5.45;;;;;;;0.60;77.34;103005.44;5073769;28;20077;-78
2024/01/28 04:39:34;;;;;;;10.75;5.50;;;;;;;0.65;77.50;103002.19;5072885;28;20028;-78
2024/01/28 04:42:01;;;;;;;8.80;5.45;;;;;;;0.72;77.91;102996.38;5066563;28;20372;-77
2024/01/28 04:44:26;;;;;;;15.50;6.18;;;;;;;0.66;76.88;102996.16;5065713;28;20123;-77
2024/01/28 04:46:52;;;;;;;13.57;5.63;;;;;;;0.64;77.43;102990.00;5074717;28;20115;-78
2024/01/28 04:49:17;;;;;;;9.68;5.68;;;;;;;0.64;77.63;102994.31;5088592;28;20021;-77
2024/01/28 04:51:42;;;;;;;11.20;6.05;;;;;;;0.67;77.67;102977.09;5069793;28;20090;-77
2024/01/28 04:54:08;;;;;;;13.43;6.03;;;;;;;0.68;78.00;102973.66;5072792;28;20016;-78
2024/01/28 04:56:33;;;;;;;16.77;5.90;;;;;;;0.71;78.09;102978.09;5076205;28;20476;-77
2024/01/28 04:58:58;;;;;;;14.82;6.20;;;;;;;0.74;78.61;102979.06;5075728;28;20198;-77
2024/01/28 05:01:24;;;;;;;9.00;5.78;;;;;;;0.79;78.69;102966.19;5072844;28;20106;-78
2024/01/28 05:03:49;;;;;;;9.50;5.32;;;;;;;0.79;78.95;102965.31;5070009;28;20051;-78
2024/01/28 05:06:15;;;;;;;12.27;5.15;;;;;;;0.85;78.91;102973.38;5074947;28;20020;-77
2024/01/28 05:08:40;;;;;;;10.75;5.47;;;;;;;0.81;78.24;102974.97;5075886;28;20564;-77
2024/01/28 05:11:06;;;;;;;18.35;6.28;;;;;;;0.82;78.58;102983.66;5069172;28;20020;-78
2024/01/28 05:13:32;;;;;;;9.70;5.53;;;;;;;0.85;77.82;102981.19;5071335;28;20032;-77
2024/01/28 05:15:57;;;;;;;14.60;5.72;;;;;;;0.80;77.56;102977.53;5072964;28;20030;-77
2024/01/28 05:18:22;;;;;;;8.95;5.53;;;;;;;0.70;77.78;102976.31;5070049;28;20055;-77
2024/01/28 05:20:48;;;;;;;11.98;6.22;;;;;;;0.63;77.15;102967.41;5072013;28;20059;-77
2024/01/28 05:23:13;;;;;;;13.43;5.90;;;;;;;0.63;77.45;102966.53;5071711;28;20035;-78
2024/01/28 05:25:38;;;;;;;13.90;5.60;;;;;;;0.62;77.74;102969.97;5064622;28;20028;-78
2024/01/28 05:28:06;;;;;;;13.10;6.30;;;;;;;0.64;78.23;102974.38;5075347;28;20028;-78
2024/01/28 05:30:32;;;;;;;10.45;6.28;;;;;;;0.66;78.44;102962.31;5076912;28;20026;-78
2024/01/28 05:32:57;;;;;;;10.35;5.43;;;;;;;0.72;78.62;102959.91;5079603;28;20025;-78
2024/01/28 05:35:23;;;;;;;12.98;5.93;;;;;;;0.79;78.50;102954.91;5071833;28;20025;-78
2024/01/28 05:37:48;;;;;;;14.52;5.75;;;;;;;0.72;78.28;102952.09;5073539;28;20039;-78
2024/01/28 05:40:13;;;;;;;12.57;5.97;;;;;;;0.79;78.62;102944.50;5076954;28;20387;-78
2024/01/28 05:42:39;;;;;;;12.57;5.90;;;;;;;0.80;78.33;102941.97;5072165;28;20086;-78
2024/01/28 05:45:05;;;;;;;12.20;5.57;;;;;;;0.80;78.33;102931.56;5077555;28;20021;-78
2024/01/28 05:47:30;;;;;;;13.10;5.63;;;;;;;0.79;77.76;102931.47;5071898;28;20468;-78
2024/01/28 05:49:55;;;;;;;9.90;5.28;;;;;;;0.72;77.49;102928.69;5076389;28;20524;-78
2024/01/28 05:52:21;;;;;;;15.23;5.00;;;;;;;0.69;77.42;102925.97;5074843;28;20032;-78
2024/01/28 05:54:46;;;;;;;14.43;6.40;;;;;;;0.62;78.42;102923.13;5080318;28;20024;-78
2024/01/28 05:57:12;;;;;;;15.02;6.05;;;;;;;0.69;79.01;102923.34;5070383;28;20030;-78
2024/01/28 05:59:38;;;;;;;15.60;5.70;;;;;;;0.74;79.14;102924.41;5080501;28;20028;-78
2024/01/28 06:02:03;;;;;;;10.02;5.30;;;;;;;0.83;78.54;102922.94;5070432;28;20033;-78
2024/01/28 06:04:29;;;;;;;12.13;6.07;;;;;;;0.79;78.59;102908.03;5073716;28;20071;-78
2024/01/28 06:06:55;;;;;;;8.98;4.70;;;;;;;0.79;78.69;102902.84;5070465;28;20511;-78
2024/01/28 06:09:20;;;;;;;10.98;4.85;;;;;;;0.83;78.27;102899.50;5077354;28;20498;-79
2024/01/28 06:11:46;;;;;;;13.15;5.50;;;;;;;0.83;78.74;102894.31;5073607;28;20029;-79
2024/01/28 06:14:11;;;;;;;9.65;4.72;;;;;;;0.88;78.48;102890.13;5077969;28;20095;-79
2024/01/28 06:16:37;;;;;;;12.35;5.07;;;;;;;0.90;78.03;102891.06;5079170;28;20035;-79
2024/01/28 06:19:03;;;;;;;13.27;5.40;;;;;;;0.87;77.98;102888.38;5071751;28;20027;-79
2024/01/28 06:21:29;;;;;;;13.48;6.38;;;;;;;0.85;78.35;102898.75;5072371;28;20037;-79
2024/01/28 06:23:55;;;;;;;13.05;5.10;;;;;;;0.86;77.97;102894.41;5091036;28;20020;-79
2024/01/28 06:26:20;;;;;;;9.05;4.70;;;;;;;0.89;78.01;102897.13;5074602;28;20029;-79
2024/01/28 06:28:45;;;;;;;12.30;5.10;;;;;;;0.83;77.42;102882.16;5075473;28;20015;-79
2024/01/28 06:31:14;;;;;;;11.43;5.03;;;;;;;0.82;77.52;102890.81;5077424;28;20031;-79
2024/01/28 06:33:41;;;;;;;11.48;4.90;;;;;;;0.81;77.30;102885.56;5073044;28;20257;-79
2024/01/28 06:36:06;;;;;;;12.68;4.97;;;;;;;0.82;78.16;102890.81;5076126;28;20372;-79
2024/01/28 06:38:32;;;;;;;11.50;5.13;;;;;;;0.83;79.08;102882.16;5081304;28;20034;-79
2024/01/28 06:40:57;;;;;;;10.88;5.13;;;;;;;0.89;78.83;102884.09;5076784;28;20115;-79
2024/01/28 06:43:25;;;;;;;8.57;5.20;;;;;;;0.90;78.64;102870.25;5079280;28;20020;-79
2024/01/28 06:45:51;;;;;;;8.75;4.10;;;;;;;0.95;78.59;102882.56;5079225;28;20024;-79
2024/01/28 06:48:16;;;;;;;12.30;5.47;;;;;;;0.92;78.80;102864.22;5076706;28;20498;-79
2024/01/28 06:50:42;;;;;;;12.98;5.38;;;;;;;1.00;78.57;102878.41;5072414;28;20028;-79
2024/01/28 06:53:07;;;;;;;12.82;5.35;;;;;;;1.02;78.42;102879.31;5072578;28;20166;-79
2024/01/28 06:55:33;;;;;;;16.92;5.07;;;;;;;1.02;77.71;102881.03;5080764;28;20111;-80
2024/01/28 06:58:00;;;;;;;10.93;4.80;;;;;;;1.04;77.74;102879.38;5075550;28;20020;-79
2024/01/28 07:00:25;;;;;;;12.13;5.45;;;;;;;1.01;77.79;102876.66;5077673;28;20399;-80
2024/01/28 07:02:53;;;;;;;13.40;4.43;;;;;;;0.99;77.38;102880.97;5083580;28;20048;-79
2024/01/28 07:05:19;;;;;;;9.52;4.57;;;;;;;1.01;77.58;102876.66;5067566;28;20561;-79
2024/01/28 07:07:44;;;;;;;13.50;4.93;;;;;;;0.99;77.93;102873.16;5082652;28;20020;-79
2024/01/28 07:10:09;;;;;;;11.15;5.07;;;;;;;1.10;77.81;102874.34;5079483;28;20060;-79
2024/01/28 07:12:35;;;;;;;15.40;5.60;;;;;;;1.13;77.44;102871.84;5071843;28;20070;-79
2024/01/28 07:15:00;;;;;;;8.27;5.28;;;;;;;1.12;77.00;102872.69;5072136;28;20016;-79
2024/01/28 07:17:26;;;;;;;11.63;4.93;;;;;;;1.07;77.10;102873.38;5073399;28;20040;-79
2024/01/28 07:19:51;;;;;;;8.32;4.93;;;;;;;1.02;76.97;102876.72;5069824;28;20062;-79
2024/01/28 07:22:16;;;;;;;21.10;5.13;;;;;;;1.01;77.19;102871.47;5078146;28;20528;-79
2024/01/28 07:24:42;;;;;;;13.77;4.68;;;;;;;1.01;77.22;102879.28;5077047;28;20067;-79
2024/01/28 07:27:07;;;;;;;13.93;5.28;;;;;;;0.96;77.16;102870.44;5071604;28;20032;-79
2024/01/28 07:29:33;;;;;;;11.00;5.55;;;;;;;0.98;77.12;102877.47;5075327;28;20078;-79
2024/01/28 07:31:58;;;;;;;14.93;6.00;;;;;;;1.00;77.49;102869.69;5074748;28;20016;-79
2024/01/28 07:34:23;;;;;;;12.80;5.53;;;;;;;1.00;76.67;102875.78;5073562;28;20024;-79
2024/01/28 07:36:51;;;;;;;13.70;5.72;;;;;;;0.96;77.19;102866.09;5076722;28;20103;-80
2024/01/28 07:39:16;;;;;;;10.30;5.30;;;;;;;0.99;77.40;102866.22;5076204;28;20057;-79
2024/01/28 07:41:41;;;;;;;16.67;5.65;;;;;;;1.00;77.12;102852.34;5076326;28;20487;-80
2024/01/28 07:44:08;;;;;;;9.50;5.38;;;;;;;1.00;77.32;102867.97;5079397;28;20672;-79
2024/01/28 07:46:33;;;;;;;12.38;5.70;;;;;;;1.06;77.38;102858.59;5069451;28;20111;-79
2024/01/28 07:48:59;;;;;;;14.02;5.68;;;;;;;1.07;77.12;102860.34;5074311;28;20115;-79
2024/01/28 07:51:25;;;;;;;11.38;5.20;;;;;;;1.02;77.12;102855.00;5082589;28;20035;-79
2024/01/28 07:53:50;;;;;;;13.25;5.93;;;;;;;1.07;77.13;102865.56;5080995;28;20024;-79
2024/01/28 07:56:16;;;;;;;9.82;5.18;;;;;;;1.09;77.16;102856.97;5070751;28;20025;-80
2024/01/28 07:58:41;;;;;;;14.70;5.32;;;;;;;1.10;77.33;102850.03;5071875;28;20369;-80
2024/01/28 08:01:07;;;;;;;11.10;5.32;;;;;;;1.17;77.25;102858.09;5072783;28;20503;-79
2024/01/28 08:03:32;;;;;;;15.93;5.88;;;;;;;1.26;77.04;102853.16;5072006;28;20128;-82
2024/01/28 08:05:57;;;;;;;14.32;5.68;;;;;;;1.25;77.11;102851.38;5069644;28;20165;-83
2024/01/28 08:08:23;;;;;;;11.77;5.65;;;;;;;1.32;77.02;102854.19;5070165;28;20028;-83
2024/01/28 08:10:49;;;;;;;13.45;5.53;;;;;;;1.41;77.35;102852.75;5072955;28;20051;-83
2024/01/28 08:13:14;;;;;;;13.32;6.40;;;;;;;1.42;77.35;102851.00;5074544;28;20104;-82
2024/01/28 08:15:40;;;;;;;15.27;6.35;;;;;;;1.55;77.30;102854.88;5071555;28;20100;-83
2024/01/28 08:18:05;;;;;;;12.48;6.82;;;;;;;1.61;76.59;102855.03;5070115;28;20020;-83
2024/01/28 08:20:31;;;;;;;12.15;5.75;;;;;;;1.68;77.25;102849.16;5068198;28;20090;-83
2024/01/28 08:22:56;;;;;;;17.42;7.00;;;;;;;1.76;77.04;102843.31;5073234;28;20016;-84
2024/01/28 08:25:21;;;;;;;16.60;7.05;;;;;;;2.09;76.64;102842.47;5076524;28;20031;-83
2024/01/28 08:27:46;;;;;;;11.02;6.43;;;;;;;2.87;75.84;102841.84;5078918;28;20431;-83
2024/01/28 08:30:12;;;;;;;9.75;5.90;;;;;;;3.56;73.61;102841.66;5077210;28;20121;-83
2024/01/28 08:32:37;;;;;;;9.30;6.30;;;;;;;4.14;71.69;102836.69;5072160;28;20032;-79
2024/01/28 08:35:03;;;;;;;9.90;6.10;;;;;;;4.81;71.19;102840.47;5072830;28;20379;-80
2024/01/28 08:37:29;;;;;;;14.73;6.30;;;;;;;5.54;68.07;102827.50;5077824;28;20067;-80
2024/01/28 08:39:54;;;;;;;12.40;5.70;;;;;;;6.16;67.06;102825.63;5080698;28;20435;-80
2024/01/28 08:42:19;;;;;;;13.82;5.97;;;;;;;6.49;64.38;102828.56;5070770;28;20052;-81
2024/01/28 08:44:46;;;;;;;11.57;5.57;;;;;;;6.91;63.89;102835.03;5072736;28;20029;-81
2024/01/28 08:47:11;;;;;;;7.50;4.80;;;;;;;7.24;60.94;102836.13;5070580;28;20021;-80
2024/01/28 08:49:37;;;;;;;11.73;5.28;;;;;;;7.10;61.60;102833.41;5072131;28;20447;-80
2024/01/28 08:52:02;;;;;;;6.57;4.25;;;;;;;7.09;61.49;102827.28;5069967;28;20033;-80
2024/01/28 08:54:30;;;;;;;11.00;5.10;;;;;;;7.11;61.14;102827.25;5063907;28;20543;-79
2024/01/28 08:56:56;;;;;;;10.88;4.38;;;;;;;7.02;60.38;102816.69;5069184;28;20028;-79
2024/01/28 08:59:21;;;;;;;7.57;4.15;;;;;;;7.09;60.09;102823.75;5069589;28;20482;-79
2024/01/28 09:01:47;;;;;;;11.07;5.00;;;;;;;7.47;60.60;102826.59;5065825;28;20150;-79
2024/01/28 09:04:13;;;;;;;8.82;4.00;;;;;;;7.70;58.31;102818.78;5066995;28;20388;-79
2024/01/28 09:06:38;;;;;;;7.07;4.30;;;;;;;8.37;57.38;102816.31;5081732;28;20020;-79
2024/01/28 09:09:07;;;;;;;7.35;3.92;;;;;;;8.35;56.41;102820.69;5071217;28;20112;-78
2024/01/28 09:11:34;;;;;;;7.82;4.50;;;;;;;8.52;57.52;102806.66;5067217;28;20027;-79
2024/01/28 09:14:01;;;;;;;7.57;4.22;;;;;;;8.43;56.07;102810.16;5077291;28;20032;-83
2024/01/28 09:16:26;;;;;;;8.65;4.15;;;;;;;8.46;57.26;102810.19;5074761;28;20040;-82
2024/01/28 09:18:51;;;;;;;8.65;3.97;;;;;;;8.55;54.30;102801.38;5076078;28;20487;-84
2024/01/28 09:21:17;;;;;;;7.93;3.90;;;;;;;8.59;55.45;102806.66;5074446;28;20028;-83
2024/01/28 09:23:42;;;;;;;7.10;3.88;;;;;;;8.96;55.75;102803.97;5077079;28;20033;-83
2024/01/28 09:26:07;;;;;;;7.63;4.50;;;;;;;8.73;54.62;102801.38;5072569;28;20119;-84
2024/01/28 09:28:33;;;;;;;7.80;4.13;;;;;;;8.55;54.34;102804.03;5075902;28;20074;-81
2024/01/28 09:30:58;;;;;;;7.30;4.03;;;;;;;8.48;54.62;102791.72;5072224;28;20113;-83
2024/01/28 09:33:23;;;;;;;9.07;3.80;;;;;;;8.73;54.97;102787.31;5068342;28;20447;-84
2024/01/28 09:35:52;;;;;;;7.70;3.20;;;;;;;9.59;52.62;102791.44;5073169;28;20070;-83
2024/01/28 09:38:21;;;;;;;8.10;3.60;;;;;;;11.19;49.50;102799.00;5066468;28;20032;-84
2024/01/28 09:40:47;;;;;;;7.25;4.03;;;;;;;12.58;47.16;102789.09;5067112;28;20491;-85
2024/01/28 09:43:29;;;;;;;6.53;3.55;;;;;;;13.87;47.89;102792.75;5060534;28;20044;-79
2024/01/28 09:45:55;;;;;;;6.53;3.63;;;;;;;14.23;43.20;102799.00;5068065;28;20020;-79
2024/01/28 09:48:21;;;;;;;7.35;3.55;;;;;;;14.99;40.41;102798.84;5074172;28;20036;-78
2024/01/28 09:50:46;;;;;;;6.55;3.50;;;;;;;15.55;40.31;102793.66;5060261;28;20433;-82
2024/01/28 09:53:15;;;;;;;6.07;3.03;;;;;;;16.11;38.39;102798.22;5071239;28;20032;-85
2024/01/28 09:55:41;;;;;;;6.88;3.58;;;;;;;15.97;37.63;102790.63;5072721;28;20028;-79
2024/01/28 09:58:07;;;;;;;5.68;3.20;;;;;;;16.07;36.81;102783.22;5073390;28;20028;-79
2024/01/28 10:00:32;;;;;;;6.70;3.58;;;;;;;15.73;34.94;102786.09;5069087;28;20020;-80
2024/01/28 10:02:58;;;;;;;7.22;3.42;;;;;;;16.48;37.21;102779.19;5070478;28;20473;-79
2024/01/28 10:05:23;;;;;;;6.40;3.25;;;;;;;16.13;36.86;102768.78;5057429;28;20058;-80
2024/01/28 10:07:57;;;;;;;6.15;3.42;;;;;;;15.72;36.57;102769.22;5078654;28;20031;-80
2024/01/28 10:10:23;;;;;;;9.68;3.20;;;;;;;16.06;35.38;102770.81;5071979;28;20025;-80
2024/01/28 10:12:49;;;;;;;4.45;3.08;;;;;;;17.17;36.53;102770.56;5076198;28;20046;-80
2024/01/28 10:15:16;;;;;;;4.30;3.00;;;;;;;18.30;34.77;102764.31;5079539;28;20016;-81
2024/01/28 10:17:46;;;;;;;8.05;3.42;;;;;;;18.50;33.66;102763.44;5070845;28;20025;-81
2024/01/28 10:20:13;;;;;;;7.95;3.30;;;;;;;18.08;31.40;102760.78;5071295;28;20031;-80
2024/01/28 10:22:38;;;;;;;4.28;3.10;;;;;;;17.66;31.73;102761.53;5069578;28;20085;-87
2024/01/28 10:25:04;;;;;;;6.10;3.28;;;;;;;18.04;34.13;102760.00;5064401;28;20021;-86
2024/01/28 10:27:30;;;;;;;6.45;3.10;;;;;;;18.56;34.13;102767.69;5069527;28;20111;-85
2024/01/28 10:29:55;;;;;;;7.93;3.67;;;;;;;18.96;30.96;102765.97;5074324;28;20025;-86
2024/01/28 10:32:21;;;;;;;6.22;3.67;;;;;;;18.98;32.27;102764.06;5074477;28;20373;-85
2024/01/28 10:34:46;;;;;;;5.55;2.97;;;;;;;19.45;32.21;102753.88;5069981;28;20017;-85
2024/01/28 10:37:15;;;;;;;6.10;3.80;;;;;;;20.12;30.39;102757.81;5058173;28;20033;-84
2024/01/28 10:39:44;;;;;;;8.45;4.63;;;;;;;20.60;28.46;102750.91;5074590;28;20024;-85
2024/01/28 10:42:12;;;;;;;6.18;4.00;;;;;;;20.96;28.37;102748.09;5073026;28;20037;-84
2024/01/28 10:44:45;;;;;;;7.63;4.30;;;;;;;20.80;28.38;102749.88;5080495;28;20039;-85
2024/01/28 10:47:12;;;;;;;10.60;5.70;;;;;;;20.87;30.17;102746.78;5076029;28;20099;-86
2024/01/28 10:49:42;;;;;;;8.18;6.32;;;;;;;22.04;27.19;102743.00;5073658;28;20028;-86
2024/01/28 10:52:09;;;;;;;13.35;10.38;;;;;;;22.22;26.34;102741.94;5079241;28;20023;-84
2024/01/28 10:54:37;;;;;;;13.68;11.98;;;;;;;;;;5071848;28;20020;-85
2024/01/28 10:57:04;;;;;;;13.85;9.43;;;;;;;22.70;25.84;102733.69;5077110;28;20036;-84
2024/01/28 10:59:30;;;;;;;10.27;7.90;;;;;;;22.32;26.17;102735.03;5073859;28;20302;-84
2024/01/28 11:01:56;;;;;;;7.82;4.90;;;;;;;22.42;26.77;102732.66;5076159;28;20044;-85
2024/01/28 11:04:21;;;;;;;5.22;3.97;;;;;;;22.22;25.76;102724.91;5081378;28;20050;-85
2024/01/28 11:06:47;;;;;;;6.07;3.80;;;;;;;22.75;27.34;102727.03;5075532;28;20487;-85
2024/01/28 11:09:12;;;;;;;6.28;3.75;;;;;;;23.68;24.71;102712.19;5057115;28;20024;-85
2024/01/28 11:11:37;;;;;;;7.55;4.10;;;;;;;24.15;22.88;102706.31;5072035;28;20500;-85
2024/01/28 11:14:09;;;;;;;6.35;3.60;;;;;;;22.90;25.40;102709.97;5062936;28;20028;-84
2024/01/28 11:16:36;;;;;;;8.57;4.18;;;;;;;23.04;24.00;102700.16;5082962;28;20035;-85
2024/01/28 11:19:07;;;;;;;6.78;3.90;;;;;;;22.67;24.70;102699.72;5076127;28;20037;-85
2024/01/28 11:21:33;;;;;;;9.35;3.95;;;;;;;22.76;24.07;102699.16;5077680;28;20028;-84